sensor_id;sensor_type;location;lat;lon;timestamp;temperature;humidity
23083;DHT22;11709;52.420;10.538;2023-02-14T00:00:13;3.00;99.90
23083;DHT22;11709;52.420;10.538;2023-02-14T00:04:17;2.90;99.90
23083;DHT22;11709;52.420;10.538;2023-02-14T00:08:19;2.90;99.90
23083;DHT22;11709;52.420;10.538;2023-02-14T00:12:22;3.00;99.90
23083;DHT22;11709;52.420;10.538;2023-02-14T00:16:24;3.00;99.90
23083;DHT22;11709;52.420;10.538;2023-02-14T00:20:27;3.00;99.90
23083;DHT22;11709;52.420;10.538;2023-02-14T00:24:30;3.10;99.90
23083;DHT22;11709;52.420;10.538;2023-02-14T00:28:33;3.10;99.90
23083;DHT22;11709;52.420;10.538;2023-02-14T00:32:37;3.10;99.90
23083;DHT22;11709;52.420;10.538;2023-02-14T00:36:40;3.10;99.90
23083;DHT22;11709;52.420;10.538;2023-02-14T00:40:42;3.20;99.90
23083;DHT22;11709;52.420;10.538;2023-02-14T00:44:45;3.30;99.90
23083;DHT22;11709;52.420;10.538;2023-02-14T00:48:48;3.30;99.90
23083;DHT22;11709;52.420;10.538;2023-02-14T00:52:50;3.40;99.90
23083;DHT22;11709;52.420;10.538;2023-02-14T00:56:53;3.40;99.90
23083;DHT22;11709;52.420;10.538;2023-02-14T01:00:56;3.40;99.90
23083;DHT22;11709;52.420;10.538;2023-02-14T01:04:58;3.50;99.90
23083;DHT22;11709;52.420;10.538;2023-02-14T01:09:01;3.50;99.90
23083;DHT22;11709;52.420;10.538;2023-02-14T01:13:04;3.60;99.90
23083;DHT22;11709;52.420;10.538;2023-02-14T01:17:06;3.70;99.90
23083;DHT22;11709;52.420;10.538;2023-02-14T01:21:23;3.70;99.90
23083;DHT22;11709;52.420;10.538;2023-02-14T01:25:27;3.80;99.90
23083;DHT22;11709;52.420;10.538;2023-02-14T01:29:29;3.90;99.90
23083;DHT22;11709;52.420;10.538;2023-02-14T01:33:32;3.90;99.90
23083;DHT22;11709;52.420;10.538;2023-02-14T01:37:35;4.00;99.90
23083;DHT22;11709;52.420;10.538;2023-02-14T01:41:38;4.00;99.90
23083;DHT22;11709;52.420;10.538;2023-02-14T01:45:41;4.00;99.90
23083;DHT22;11709;52.420;10.538;2023-02-14T01:49:51;4.10;99.90
23083;DHT22;11709;52.420;10.538;2023-02-14T01:53:50;4.10;99.90
23083;DHT22;11709;52.420;10.538;2023-02-14T01:57:56;4.10;99.90
23083;DHT22;11709;52.420;10.538;2023-02-14T02:01:59;4.20;99.90
23083;DHT22;11709;52.420;10.538;2023-02-14T02:06:18;4.20;99.90
23083;DHT22;11709;52.420;10.538;2023-02-14T02:10:16;4.20;99.90
23083;DHT22;11709;52.420;10.538;2023-02-14T02:14:21;4.30;99.90
23083;DHT22;11709;52.420;10.538;2023-02-14T02:19:13;4.30;99.90
23083;DHT22;11709;52.420;10.538;2023-02-14T02:35:53;4.40;99.90
23083;DHT22;11709;52.420;10.538;2023-02-14T02:44:28;4.40;99.90
23083;DHT22;11709;52.420;10.538;2023-02-14T02:48:21;4.50;99.90
23083;DHT22;11709;52.420;10.538;2023-02-14T02:56:53;4.50;99.90
23083;DHT22;11709;52.420;10.538;2023-02-14T03:00:58;4.40;99.90
23083;DHT22;11709;52.420;10.538;2023-02-14T03:05:03;4.40;99.90
23083;DHT22;11709;52.420;10.538;2023-02-14T03:22:14;4.10;99.90
23083;DHT22;11709;52.420;10.538;2023-02-14T03:26:17;4.00;99.90
23083;DHT22;11709;52.420;10.538;2023-02-14T03:30:27;3.90;99.90
23083;DHT22;11709;52.420;10.538;2023-02-14T03:34:32;3.70;99.90
23083;DHT22;11709;52.420;10.538;2023-02-14T03:38:40;3.60;99.90
23083;DHT22;11709;52.420;10.538;2023-02-14T03:46:57;3.40;99.90
23083;DHT22;11709;52.420;10.538;2023-02-14T03:51:00;3.30;99.90
23083;DHT22;11709;52.420;10.538;2023-02-14T03:55:06;3.20;99.90
23083;DHT22;11709;52.420;10.538;2023-02-14T03:59:19;3.10;99.90
23083;DHT22;11709;52.420;10.538;2023-02-14T04:03:22;3.10;99.90
23083;DHT22;11709;52.420;10.538;2023-02-14T04:07:26;2.90;99.90
23083;DHT22;11709;52.420;10.538;2023-02-14T04:11:29;2.80;99.90
23083;DHT22;11709;52.420;10.538;2023-02-14T04:15:33;2.70;99.90
23083;DHT22;11709;52.420;10.538;2023-02-14T04:19:35;2.60;99.90
23083;DHT22;11709;52.420;10.538;2023-02-14T04:23:38;2.50;99.90
23083;DHT22;11709;52.420;10.538;2023-02-14T04:27:40;2.40;99.90
23083;DHT22;11709;52.420;10.538;2023-02-14T04:31:43;2.30;99.90
23083;DHT22;11709;52.420;10.538;2023-02-14T04:35:47;2.30;99.90
23083;DHT22;11709;52.420;10.538;2023-02-14T04:39:49;2.20;99.90
23083;DHT22;11709;52.420;10.538;2023-02-14T04:43:52;2.20;99.90
23083;DHT22;11709;52.420;10.538;2023-02-14T04:47:54;2.10;99.90
23083;DHT22;11709;52.420;10.538;2023-02-14T04:51:57;2.00;99.90
23083;DHT22;11709;52.420;10.538;2023-02-14T04:56:00;2.00;99.90
23083;DHT22;11709;52.420;10.538;2023-02-14T05:00:03;2.00;99.90
23083;DHT22;11709;52.420;10.538;2023-02-14T05:04:06;2.00;99.90
23083;DHT22;11709;52.420;10.538;2023-02-14T05:08:09;2.00;99.90
23083;DHT22;11709;52.420;10.538;2023-02-14T05:12:12;2.00;99.90
23083;DHT22;11709;52.420;10.538;2023-02-14T05:16:14;2.00;99.90
23083;DHT22;11709;52.420;10.538;2023-02-14T05:20:17;1.90;99.90
23083;DHT22;11709;52.420;10.538;2023-02-14T05:24:19;1.80;99.90
23083;DHT22;11709;52.420;10.538;2023-02-14T05:28:22;1.80;99.90
23083;DHT22;11709;52.420;10.538;2023-02-14T05:32:24;1.80;99.90
23083;DHT22;11709;52.420;10.538;2023-02-14T05:36:27;1.80;99.90
23083;DHT22;11709;52.420;10.538;2023-02-14T05:40:29;1.80;99.90
23083;DHT22;11709;52.420;10.538;2023-02-14T05:44:33;1.80;99.90
23083;DHT22;11709;52.420;10.538;2023-02-14T05:48:35;1.80;99.90
23083;DHT22;11709;52.420;10.538;2023-02-14T05:52:38;1.70;99.90
23083;DHT22;11709;52.420;10.538;2023-02-14T05:56:41;1.70;99.90
23083;DHT22;11709;52.420;10.538;2023-02-14T06:00:43;1.70;99.90
23083;DHT22;11709;52.420;10.538;2023-02-14T06:04:46;1.70;99.90
23083;DHT22;11709;52.420;10.538;2023-02-14T06:08:48;1.60;99.90
23083;DHT22;11709;52.420;10.538;2023-02-14T06:12:52;1.60;99.90
23083;DHT22;11709;52.420;10.538;2023-02-14T06:16:54;1.60;99.90
23083;DHT22;11709;52.420;10.538;2023-02-14T06:20:57;1.60;99.90
23083;DHT22;11709;52.420;10.538;2023-02-14T06:24:59;1.60;99.90
23083;DHT22;11709;52.420;10.538;2023-02-14T06:29:03;1.60;99.90
23083;DHT22;11709;52.420;10.538;2023-02-14T06:33:05;1.60;99.90
23083;DHT22;11709;52.420;10.538;2023-02-14T06:37:08;1.50;99.90
23083;DHT22;11709;52.420;10.538;2023-02-14T06:41:10;1.50;99.90
23083;DHT22;11709;52.420;10.538;2023-02-14T06:45:15;1.40;99.90
23083;DHT22;11709;52.420;10.538;2023-02-14T06:49:17;1.30;99.90
23083;DHT22;11709;52.420;10.538;2023-02-14T06:53:20;1.30;99.90
23083;DHT22;11709;52.420;10.538;2023-02-14T06:57:23;1.30;99.90
23083;DHT22;11709;52.420;10.538;2023-02-14T07:01:25;1.20;99.90
23083;DHT22;11709;52.420;10.538;2023-02-14T07:05:28;1.10;99.90
23083;DHT22;11709;52.420;10.538;2023-02-14T07:09:30;1.00;99.90
23083;DHT22;11709;52.420;10.538;2023-02-14T07:13:33;1.00;99.90
23083;DHT22;11709;52.420;10.538;2023-02-14T07:17:35;1.00;99.90
23083;DHT22;11709;52.420;10.538;2023-02-14T07:21:38;0.90;99.90
23083;DHT22;11709;52.420;10.538;2023-02-14T07:25:40;0.90;99.90
23083;DHT22;11709;52.420;10.538;2023-02-14T07:29:43;0.90;99.90
23083;DHT22;11709;52.420;10.538;2023-02-14T07:33:45;0.90;99.90
23083;DHT22;11709;52.420;10.538;2023-02-14T07:37:49;0.90;99.90
23083;DHT22;11709;52.420;10.538;2023-02-14T07:41:52;0.90;99.90
23083;DHT22;11709;52.420;10.538;2023-02-14T07:45:54;0.90;99.90
23083;DHT22;11709;52.420;10.538;2023-02-14T07:49:57;0.90;99.90
23083;DHT22;11709;52.420;10.538;2023-02-14T07:53:59;0.90;99.90
23083;DHT22;11709;52.420;10.538;2023-02-14T07:58:02;0.90;99.90
23083;DHT22;11709;52.420;10.538;2023-02-14T08:02:05;0.90;99.90
23083;DHT22;11709;52.420;10.538;2023-02-14T08:06:07;0.90;99.90
23083;DHT22;11709;52.420;10.538;2023-02-14T08:10:10;1.00;99.90
23083;DHT22;11709;52.420;10.538;2023-02-14T08:14:13;1.10;99.90
23083;DHT22;11709;52.420;10.538;2023-02-14T08:18:16;1.10;99.90
23083;DHT22;11709;52.420;10.538;2023-02-14T08:22:19;1.20;99.90
23083;DHT22;11709;52.420;10.538;2023-02-14T08:26:22;1.30;99.90
23083;DHT22;11709;52.420;10.538;2023-02-14T08:30:24;1.40;99.90
23083;DHT22;11709;52.420;10.538;2023-02-14T08:34:27;1.40;99.90
23083;DHT22;11709;52.420;10.538;2023-02-14T08:38:29;1.50;99.90
23083;DHT22;11709;52.420;10.538;2023-02-14T08:42:32;1.60;99.90
23083;DHT22;11709;52.420;10.538;2023-02-14T08:46:35;1.70;99.90
23083;DHT22;11709;52.420;10.538;2023-02-14T08:50:38;1.80;99.90
23083;DHT22;11709;52.420;10.538;2023-02-14T08:54:41;1.70;99.90
23083;DHT22;11709;52.420;10.538;2023-02-14T08:58:44;1.90;99.90
23083;DHT22;11709;52.420;10.538;2023-02-14T09:02:51;2.00;99.90
23083;DHT22;11709;52.420;10.538;2023-02-14T09:06:54;2.10;99.90
23083;DHT22;11709;52.420;10.538;2023-02-14T09:10:57;2.20;99.90
23083;DHT22;11709;52.420;10.538;2023-02-14T09:14:59;2.40;99.90
23083;DHT22;11709;52.420;10.538;2023-02-14T09:19:02;2.50;99.90
23083;DHT22;11709;52.420;10.538;2023-02-14T09:23:04;2.70;99.90
23083;DHT22;11709;52.420;10.538;2023-02-14T09:27:07;2.80;99.90
23083;DHT22;11709;52.420;10.538;2023-02-14T09:31:11;3.00;99.90
23083;DHT22;11709;52.420;10.538;2023-02-14T09:35:14;3.20;99.90
23083;DHT22;11709;52.420;10.538;2023-02-14T09:39:17;3.30;99.90
23083;DHT22;11709;52.420;10.538;2023-02-14T09:47:50;3.60;99.90
23083;DHT22;11709;52.420;10.538;2023-02-14T09:51:54;3.70;99.90
23083;DHT22;11709;52.420;10.538;2023-02-14T09:56:19;3.90;99.90
23083;DHT22;11709;52.420;10.538;2023-02-14T10:00:41;4.10;99.90
23083;DHT22;11709;52.420;10.538;2023-02-14T10:05:00;4.20;99.90
23083;DHT22;11709;52.420;10.538;2023-02-14T10:13:28;4.40;99.90
23083;DHT22;11709;52.420;10.538;2023-02-14T10:17:35;4.50;99.90
23083;DHT22;11709;52.420;10.538;2023-02-14T10:21:58;4.70;99.90
23083;DHT22;11709;52.420;10.538;2023-02-14T10:30:18;5.30;99.90
23083;DHT22;11709;52.420;10.538;2023-02-14T10:34:43;5.60;99.90
23083;DHT22;11709;52.420;10.538;2023-02-14T10:38:58;5.80;99.90
23083;DHT22;11709;52.420;10.538;2023-02-14T10:47:47;6.40;99.90
23083;DHT22;11709;52.420;10.538;2023-02-14T10:51:58;6.90;99.90
23083;DHT22;11709;52.420;10.538;2023-02-14T10:56:06;7.40;99.90
23083;DHT22;11709;52.420;10.538;2023-02-14T11:00:07;7.90;99.90
23083;DHT22;11709;52.420;10.538;2023-02-14T11:04:11;8.40;99.90
23083;DHT22;11709;52.420;10.538;2023-02-14T11:12:35;9.10;99.90
23083;DHT22;11709;52.420;10.538;2023-02-14T11:16:38;8.90;99.90
23083;DHT22;11709;52.420;10.538;2023-02-14T11:20:41;8.90;99.90
23083;DHT22;11709;52.420;10.538;2023-02-14T11:24:43;8.90;99.90
23083;DHT22;11709;52.420;10.538;2023-02-14T11:28:54;9.20;99.90
23083;DHT22;11709;52.420;10.538;2023-02-14T11:32:56;9.70;99.90
23083;DHT22;11709;52.420;10.538;2023-02-14T11:36:59;10.00;99.90
23083;DHT22;11709;52.420;10.538;2023-02-14T11:41:03;10.40;99.90
23083;DHT22;11709;52.420;10.538;2023-02-14T11:46:02;11.00;99.90
23083;DHT22;11709;52.420;10.538;2023-02-14T11:49:24;11.80;99.90
23083;DHT22;11709;52.420;10.538;2023-02-14T11:53:48;12.60;96.40
23083;DHT22;11709;52.420;10.538;2023-02-14T11:57:53;13.30;95.30
23083;DHT22;11709;52.420;10.538;2023-02-14T12:01:58;14.00;90.60
23083;DHT22;11709;52.420;10.538;2023-02-14T12:06:01;14.20;64.90
23083;DHT22;11709;52.420;10.538;2023-02-14T12:14:22;15.20;46.50
23083;DHT22;11709;52.420;10.538;2023-02-14T12:18:51;15.60;35.50
23083;DHT22;11709;52.420;10.538;2023-02-14T12:23:04;16.00;27.30
23083;DHT22;11709;52.420;10.538;2023-02-14T12:27:23;16.30;13.10
23083;DHT22;11709;52.420;10.538;2023-02-14T12:31:26;16.00;3.80
23083;DHT22;11709;52.420;10.538;2023-02-14T12:49:02;17.60;1.00
23083;DHT22;11709;52.420;10.538;2023-02-14T12:53:33;17.40;5.10
23083;DHT22;11709;52.420;10.538;2023-02-14T13:27:01;17.60;1.00
23083;DHT22;11709;52.420;10.538;2023-02-14T13:55:31;21.50;1.00
23083;DHT22;11709;52.420;10.538;2023-02-14T13:59:33;20.30;1.00
23083;DHT22;11709;52.420;10.538;2023-02-14T14:07:42;20.20;1.00
23083;DHT22;11709;52.420;10.538;2023-02-14T14:11:49;21.40;1.00
23083;DHT22;11709;52.420;10.538;2023-02-14T14:28:28;20.50;1.00
23083;DHT22;11709;52.420;10.538;2023-02-14T14:36:35;21.30;1.00
23083;DHT22;11709;52.420;10.538;2023-02-14T14:40:37;21.50;1.00
23083;DHT22;11709;52.420;10.538;2023-02-14T14:53:00;19.60;1.00
23083;DHT22;11709;52.420;10.538;2023-02-14T14:57:00;19.80;1.00
23083;DHT22;11709;52.420;10.538;2023-02-14T15:01:05;17.10;1.00
23083;DHT22;11709;52.420;10.538;2023-02-14T15:09:31;14.70;1.00
23083;DHT22;11709;52.420;10.538;2023-02-14T15:42:24;11.70;38.90
23083;DHT22;11709;52.420;10.538;2023-02-14T16:15:21;8.80;88.40
23083;DHT22;11709;52.420;10.538;2023-02-14T16:27:39;8.30;99.90
23083;DHT22;11709;52.420;10.538;2023-02-14T16:43:54;7.80;99.90
23083;DHT22;11709;52.420;10.538;2023-02-14T16:51:59;6.90;99.90
23083;DHT22;11709;52.420;10.538;2023-02-14T16:56:01;6.80;99.90
23083;DHT22;11709;52.420;10.538;2023-02-14T17:24:24;6.20;99.90
23083;DHT22;11709;52.420;10.538;2023-02-14T17:40:34;5.40;99.90
23083;DHT22;11709;52.420;10.538;2023-02-14T18:17:03;4.70;99.90
23083;DHT22;11709;52.420;10.538;2023-02-14T18:33:15;4.40;99.90
23083;DHT22;11709;52.420;10.538;2023-02-14T18:45:23;5.40;99.90
23083;DHT22;11709;52.420;10.538;2023-02-14T19:01:41;4.10;99.90
23083;DHT22;11709;52.420;10.538;2023-02-14T19:09:44;5.50;99.90
23083;DHT22;11709;52.420;10.538;2023-02-14T19:17:54;5.00;99.90
23083;DHT22;11709;52.420;10.538;2023-02-14T19:26:11;4.10;99.90
23083;DHT22;11709;52.420;10.538;2023-02-14T19:34:19;4.70;99.90
23083;DHT22;11709;52.420;10.538;2023-02-14T20:10:45;3.90;99.90
23083;DHT22;11709;52.420;10.538;2023-02-14T20:14:47;4.10;99.90
23083;DHT22;11709;52.420;10.538;2023-02-14T20:18:52;3.30;99.90
23083;DHT22;11709;52.420;10.538;2023-02-14T20:22:55;4.40;99.90
23083;DHT22;11709;52.420;10.538;2023-02-14T20:39:10;3.20;99.90
23083;DHT22;11709;52.420;10.538;2023-02-14T21:11:34;2.60;99.90
23083;DHT22;11709;52.420;10.538;2023-02-14T21:47:57;2.50;99.90
23083;DHT22;11709;52.420;10.538;2023-02-14T22:32:44;1.50;99.90
23083;DHT22;11709;52.420;10.538;2023-02-14T22:40:49;1.40;99.90
23083;DHT22;11709;52.420;10.538;2023-02-14T22:44:52;2.30;99.90
23083;DHT22;11709;52.420;10.538;2023-02-14T22:52:57;1.70;99.90
23083;DHT22;11709;52.420;10.538;2023-02-14T22:57:00;2.50;99.90
23083;DHT22;11709;52.420;10.538;2023-02-14T23:01:02;2.20;99.90
23083;DHT22;11709;52.420;10.538;2023-02-14T23:13:10;1.20;99.90
